createdAt,value
2016-05-31T00:00:44.515Z,0
2016-05-31T00:01:44.549Z,0
2016-05-31T00:02:44.599Z,0
2016-05-31T00:03:44.492Z,0
2016-05-31T00:04:44.666Z,0
2016-05-31T00:05:44.700Z,0
2016-05-31T00:06:44.719Z,0
2016-05-31T00:07:45.002Z,0
2016-05-31T00:08:44.818Z,0
2016-05-31T00:09:44.696Z,0
2016-05-31T00:10:44.730Z,0
2016-05-31T00:11:44.919Z,0
2016-05-31T00:12:44.938Z,0
2016-05-31T00:13:44.987Z,0
2016-05-31T00:14:45.021Z,0
2016-05-31T00:15:45.055Z,0
2016-05-31T00:16:45.121Z,0
2016-05-31T00:17:45.154Z,0
2016-05-31T00:18:45.156Z,0
2016-05-31T00:19:45.191Z,0
2016-05-31T00:20:45.241Z,0
2016-05-31T00:21:45.275Z,0
2016-05-31T00:22:45.683Z,0
2016-05-31T00:23:45.358Z,0
2016-05-31T00:24:45.375Z,0
2016-05-31T00:25:45.426Z,0
2016-05-31T00:26:45.459Z,0
2016-05-31T00:27:45.494Z,0
2016-05-31T00:28:45.527Z,0
2016-05-31T00:29:45.562Z,0
2016-05-31T00:30:45.595Z,0
2016-05-31T00:31:45.630Z,0
2016-05-31T00:32:45.663Z,0
2016-05-31T00:33:45.697Z,0
2016-05-31T00:34:45.747Z,0
2016-05-31T00:35:45.625Z,0
2016-05-31T00:36:45.502Z,0
2016-05-31T00:37:46.177Z,0
2016-05-31T00:38:45.898Z,0
2016-05-31T00:39:45.761Z,0
2016-05-31T00:40:45.951Z,0
2016-05-31T00:41:45.999Z,0
2016-05-31T00:42:46.049Z,0
2016-05-31T00:43:46.068Z,0
2016-05-31T00:44:45.946Z,0
2016-05-31T00:45:46.135Z,0
2016-05-31T00:46:46.170Z,0
2016-05-31T00:47:46.204Z,0
2016-05-31T00:48:46.238Z,0
2016-05-31T00:49:46.272Z,0
2016-05-31T00:50:46.306Z,0
2016-05-31T00:51:46.355Z,0
2016-05-31T00:52:46.405Z,0
2016-05-31T00:53:46.423Z,0
2016-05-31T00:54:46.145Z,0
2016-05-31T00:55:46.506Z,0
2016-05-31T00:56:46.369Z,0
2016-05-31T00:57:46.418Z,0
2016-05-31T00:58:46.452Z,0
2016-05-31T00:59:46.642Z,0
2016-05-31T01:00:46.676Z,0
2016-05-31T01:01:46.710Z,0
2016-05-31T01:02:46.744Z,0
2016-05-31T01:03:46.794Z,0
2016-05-31T01:04:46.672Z,0
2016-05-31T01:05:46.877Z,0
2016-05-31T01:06:46.896Z,0
2016-05-31T01:07:47.164Z,0
2016-05-31T01:08:46.807Z,0
2016-05-31T01:09:47.013Z,0
2016-05-31T01:10:47.032Z,0
2016-05-31T01:11:47.065Z,0
2016-05-31T01:12:47.115Z,0
2016-05-31T01:13:46.993Z,0
2016-05-31T01:14:47.026Z,0
2016-05-31T01:15:47.060Z,0
2016-05-31T01:16:47.251Z,0
2016-05-31T01:17:47.284Z,0
2016-05-31T01:18:47.318Z,0
2016-05-31T01:19:47.212Z,0
2016-05-31T01:20:47.401Z,0
2016-05-31T01:21:47.436Z,0
2016-05-31T01:22:47.595Z,0
2016-05-31T01:23:47.534Z,0
2016-05-31T01:24:47.538Z,0
2016-05-31T01:25:47.618Z,0
2016-05-31T01:26:47.621Z,0
2016-05-31T01:27:47.655Z,0
2016-05-31T01:28:47.673Z,0
2016-05-31T01:29:47.708Z,0
2016-05-31T01:30:47.742Z,0
2016-05-31T01:31:47.775Z,0
2016-05-31T01:32:47.669Z,0
2016-05-31T01:33:47.546Z,0
2016-05-31T01:34:47.878Z,0
2016-05-31T01:35:47.927Z,0
2016-05-31T01:36:47.960Z,0
2016-05-31T01:37:48.480Z,0
2016-05-31T01:38:48.044Z,0
2016-05-31T01:39:47.922Z,0
2016-05-31T01:40:47.955Z,0
2016-05-31T01:41:48.146Z,0
2016-05-31T01:42:48.023Z,0
2016-05-31T01:43:48.198Z,0
2016-05-31T01:44:48.248Z,0
2016-05-31T01:45:48.282Z,0
2016-05-31T01:46:48.331Z,0
2016-05-31T01:47:48.349Z,0
2016-05-31T01:48:48.227Z,0
2016-05-31T01:49:48.433Z,0
2016-05-31T01:50:48.467Z,0
2016-05-31T01:51:48.485Z,0
2016-05-31T01:52:48.395Z,0
2016-05-31T01:53:48.568Z,0
2016-05-31T01:54:48.587Z,0
2016-05-31T01:55:48.481Z,0
2016-05-31T01:56:48.671Z,0
2016-05-31T01:57:48.704Z,0
2016-05-31T01:58:48.598Z,0
2016-05-31T01:59:48.772Z,0
2016-05-31T02:00:48.822Z,0
2016-05-31T02:01:48.700Z,0
2016-05-31T02:02:48.734Z,0
2016-05-31T02:03:48.924Z,0
2016-05-31T02:04:48.958Z,0
2016-05-31T02:05:48.991Z,0
2016-05-31T02:06:49.026Z,0
2016-05-31T02:07:49.356Z,0
2016-05-31T02:08:49.108Z,0
2016-05-31T02:09:49.143Z,0
2016-05-31T02:10:49.177Z,0
2016-05-31T02:11:49.196Z,0
2016-05-31T02:12:49.074Z,0
2016-05-31T02:13:49.263Z,0
2016-05-31T02:14:49.313Z,0
2016-05-31T02:15:49.347Z,0
2016-05-31T02:16:49.240Z,0
2016-05-31T02:17:49.258Z,0
2016-05-31T02:18:49.293Z,0
2016-05-31T02:19:49.483Z,0
2016-05-31T02:20:49.532Z,0
2016-05-31T02:21:49.426Z,0
2016-05-31T02:22:49.506Z,0
2016-05-31T02:23:49.634Z,0
2016-05-31T02:24:49.668Z,0
2016-05-31T02:25:49.687Z,0
2016-05-31T02:26:49.737Z,0
2016-05-31T02:27:49.785Z,0
2016-05-31T02:28:49.648Z,0
2016-05-31T02:29:49.838Z,0
2016-05-31T02:30:49.715Z,0
2016-05-31T02:31:49.750Z,0
2016-05-31T02:32:49.939Z,0
2016-05-31T02:33:49.833Z,0
2016-05-31T02:34:49.851Z,4
2016-05-31T02:35:49.886Z,4
2016-05-31T02:36:50.075Z,4
2016-05-31T02:37:51.281Z,4
2016-05-31T02:38:50.158Z,0
2016-05-31T02:39:50.192Z,4
2016-05-31T02:40:50.227Z,4
2016-05-31T02:41:50.104Z,4
2016-05-31T02:42:49.997Z,4
2016-05-31T02:43:50.328Z,4
2016-05-31T02:44:50.206Z,8
2016-05-31T02:45:50.396Z,4
2016-05-31T02:46:50.430Z,8
2016-05-31T02:47:50.479Z,8
2016-05-31T02:48:50.341Z,8
2016-05-31T02:49:50.532Z,12
2016-05-31T02:50:50.597Z,12
2016-05-31T02:51:50.616Z,12
2016-05-31T02:52:50.962Z,16
2016-05-31T02:53:50.684Z,20
2016-05-31T02:54:50.717Z,20
2016-05-31T02:55:50.751Z,24
2016-05-31T02:56:50.629Z,28
2016-05-31T02:57:50.820Z,28
2016-05-31T02:58:50.853Z,36
2016-05-31T02:59:50.887Z,36
2016-05-31T03:00:50.936Z,44
2016-05-31T03:01:50.799Z,48
2016-05-31T03:02:50.989Z,52
2016-05-31T03:03:51.023Z,60
2016-05-31T03:04:50.900Z,64
2016-05-31T03:05:51.106Z,72
2016-05-31T03:06:51.156Z,76
2016-05-31T03:07:51.174Z,88
2016-05-31T03:08:51.709Z,92
2016-05-31T03:09:51.086Z,104
2016-05-31T03:10:51.276Z,112
2016-05-31T03:11:51.153Z,120
2016-05-31T03:12:51.187Z,132
2016-05-31T03:13:51.238Z,144
2016-05-31T03:14:51.411Z,156
2016-05-31T03:15:51.461Z,168
2016-05-31T03:16:51.339Z,180
2016-05-31T03:17:51.357Z,196
2016-05-31T03:18:51.547Z,212
2016-05-31T03:19:51.441Z,228
2016-05-31T03:20:51.631Z,240
2016-05-31T03:21:51.665Z,252
2016-05-31T03:22:52.433Z,260
2016-05-31T03:23:52.061Z,264
2016-05-31T03:24:51.782Z,260
2016-05-31T03:25:51.645Z,264
2016-05-31T03:26:51.679Z,268
2016-05-31T03:27:51.868Z,284
2016-05-31T03:28:51.917Z,312
2016-05-31T03:29:51.952Z,352
2016-05-31T03:30:51.986Z,364
2016-05-31T03:31:52.020Z,376
2016-05-31T03:32:51.882Z,388
2016-05-31T03:33:51.931Z,392
2016-05-31T03:34:52.122Z,432
2016-05-31T03:35:51.984Z,512
2016-05-31T03:36:52.190Z,596
2016-05-31T03:37:52.067Z,636
2016-05-31T03:38:52.101Z,636
2016-05-31T03:39:52.136Z,644
2016-05-31T03:40:52.325Z,668
2016-05-31T03:41:52.203Z,700
2016-05-31T03:42:52.393Z,732
2016-05-31T03:43:52.427Z,764
2016-05-31T03:44:52.305Z,792
2016-05-31T03:45:52.494Z,820
2016-05-31T03:46:52.373Z,848
2016-05-31T03:47:52.407Z,876
2016-05-31T03:48:52.299Z,904
2016-05-31T03:49:52.631Z,924
2016-05-31T03:50:52.524Z,948
2016-05-31T03:51:52.542Z,968
2016-05-31T03:52:53.624Z,996
2016-05-31T03:53:52.845Z,1012
2016-05-31T03:54:52.816Z,1048
2016-05-31T03:55:52.851Z,1084
2016-05-31T03:56:52.743Z,1108
2016-05-31T03:57:52.762Z,1136
2016-05-31T03:58:52.968Z,1152
2016-05-31T03:59:53.001Z,1180
2016-05-31T04:00:52.864Z,1220
2016-05-31T04:01:53.069Z,1248
2016-05-31T04:02:52.948Z,1272
2016-05-31T04:03:52.981Z,1292
2016-05-31T04:04:53.014Z,1324
2016-05-31T04:05:53.206Z,1356
2016-05-31T04:06:53.239Z,1384
2016-05-31T04:07:53.413Z,1412
2016-05-31T04:08:53.181Z,1444
2016-05-31T04:09:53.342Z,1476
2016-05-31T04:10:53.391Z,1496
2016-05-31T04:11:53.408Z,1528
2016-05-31T04:12:53.303Z,1544
2016-05-31T04:13:53.477Z,1564
2016-05-31T04:14:53.526Z,1588
2016-05-31T04:15:53.560Z,1616
2016-05-31T04:16:53.594Z,1644
2016-05-31T04:17:53.613Z,1664
2016-05-31T04:18:53.505Z,1684
2016-05-31T04:19:53.696Z,1716
2016-05-31T04:20:53.574Z,1768
2016-05-31T04:21:53.779Z,1796
2016-05-31T04:22:53.907Z,1848
2016-05-31T04:23:54.519Z,1920
2016-05-31T04:24:53.725Z,2020
2016-05-31T04:25:53.899Z,2300
2016-05-31T04:26:53.949Z,3604
2016-05-31T04:27:53.827Z,5000
2016-05-31T04:28:54.017Z,5448
2016-05-31T04:29:54.050Z,5800
2016-05-31T04:30:54.084Z,6192
2016-05-31T04:31:54.119Z,6520
2016-05-31T04:32:53.840Z,6796
2016-05-31T04:33:54.186Z,7124
2016-05-31T04:34:54.065Z,7428
2016-05-31T04:35:54.098Z,7640
2016-05-31T04:36:54.303Z,7864
2016-05-31T04:37:55.026Z,7988
2016-05-31T04:38:54.372Z,8180
2016-05-31T04:39:54.406Z,8436
2016-05-31T04:40:54.455Z,8576
2016-05-31T04:41:54.475Z,8856
2016-05-31T04:42:54.508Z,9016
2016-05-31T04:43:54.385Z,9244
2016-05-31T04:44:54.591Z,9308
2016-05-31T04:45:54.625Z,9508
2016-05-31T04:46:54.519Z,9588
2016-05-31T04:47:54.693Z,9896
2016-05-31T04:48:54.743Z,10220
2016-05-31T04:49:54.621Z,10200
2016-05-31T04:50:54.826Z,10380
2016-05-31T04:51:54.704Z,9872
2016-05-31T04:52:54.988Z,10428
2016-05-31T04:53:55.085Z,11040
2016-05-31T04:54:54.962Z,11700
2016-05-31T04:55:55.012Z,12208
2016-05-31T04:56:54.873Z,12484
2016-05-31T04:57:55.095Z,12360
2016-05-31T04:58:55.145Z,12048
2016-05-31T04:59:55.162Z,12272
2016-05-31T05:00:55.041Z,12620
2016-05-31T05:01:55.246Z,12568
2016-05-31T05:02:55.280Z,12604
2016-05-31T05:03:55.330Z,12528
2016-05-31T05:04:55.192Z,12548
2016-05-31T05:05:55.398Z,12564
2016-05-31T05:06:55.275Z,12612
2016-05-31T05:07:56.591Z,12376
2016-05-31T05:08:55.359Z,12492
2016-05-31T05:09:55.564Z,12532
2016-05-31T05:10:55.286Z,12556
2016-05-31T05:11:55.632Z,12656
2016-05-31T05:12:55.667Z,12764
2016-05-31T05:13:55.716Z,12996
2016-05-31T05:14:55.750Z,13148
2016-05-31T05:15:55.800Z,13416
2016-05-31T05:16:55.849Z,13728
2016-05-31T05:17:55.727Z,14092
2016-05-31T05:18:55.760Z,14072
2016-05-31T05:19:55.967Z,11588
2016-05-31T05:20:56.016Z,7988
2016-05-31T05:21:56.082Z,6628
2016-05-31T05:22:56.224Z,8072
2016-05-31T05:23:56.149Z,15340
2016-05-31T05:24:56.168Z,20128
2016-05-31T05:25:56.201Z,19232
2016-05-31T05:26:56.126Z,17216
2016-05-31T05:27:56.285Z,17280
2016-05-31T05:28:56.335Z,21312
2016-05-31T05:29:56.243Z,23008
2016-05-31T05:30:56.418Z,22464
2016-05-31T05:31:56.468Z,22016
2016-05-31T05:32:56.361Z,23616
2016-05-31T05:33:56.395Z,25792
2016-05-31T05:34:56.601Z,25984
2016-05-31T05:35:56.651Z,25344
2016-05-31T05:36:56.668Z,24352
2016-05-31T05:37:57.125Z,23552
2016-05-31T05:38:56.752Z,23584
2016-05-31T05:39:56.786Z,24640
2016-05-31T05:40:56.836Z,24256
2016-05-31T05:41:56.885Z,22432
2016-05-31T05:42:56.607Z,23520
2016-05-31T05:43:56.953Z,24416
2016-05-31T05:44:56.862Z,25344
2016-05-31T05:45:57.052Z,23200
2016-05-31T05:46:56.945Z,22624
2016-05-31T05:47:57.136Z,19680
2016-05-31T05:48:57.169Z,12008
2016-05-31T05:49:57.203Z,9460
2016-05-31T05:50:57.096Z,12556
2016-05-31T05:51:57.303Z,19648
2016-05-31T05:52:57.868Z,24576
2016-05-31T05:53:57.448Z,26144
2016-05-31T05:54:57.264Z,19680
2016-05-31T05:55:57.313Z,8824
2016-05-31T05:56:57.504Z,5280
2016-05-31T05:57:57.405Z,4172
2016-05-31T05:58:57.623Z,3720
2016-05-31T05:59:57.699Z,4096
2016-05-31T06:00:57.775Z,3932
2016-05-31T06:01:57.835Z,3632
2016-05-31T06:02:57.734Z,3496
2016-05-31T06:03:57.949Z,3472
2016-05-31T06:04:58.023Z,3476
2016-05-31T06:05:58.068Z,3420
2016-05-31T06:06:57.798Z,3508
2016-05-31T06:07:58.090Z,3596
2016-05-31T06:08:58.205Z,3632
2016-05-31T06:09:58.243Z,3488
2016-05-31T06:10:58.296Z,3424
2016-05-31T06:11:58.333Z,3408
2016-05-31T06:12:58.385Z,3436
2016-05-31T06:13:58.107Z,3552
2016-05-31T06:14:58.300Z,3556
2016-05-31T06:15:58.350Z,3536
2016-05-31T06:16:58.385Z,3708
2016-05-31T06:17:58.576Z,3828
2016-05-31T06:18:58.642Z,3740
2016-05-31T06:19:58.660Z,3580
2016-05-31T06:20:58.710Z,3540
2016-05-31T06:21:58.748Z,3624
2016-05-31T06:22:58.483Z,3616
2016-05-31T06:23:58.956Z,3560
2016-05-31T06:24:58.866Z,3772
2016-05-31T06:25:58.741Z,4020
2016-05-31T06:26:58.949Z,3708
2016-05-31T06:27:58.808Z,3492
2016-05-31T06:28:59.016Z,3824
2016-05-31T06:29:59.066Z,3856
2016-05-31T06:30:59.100Z,4696
2016-05-31T06:31:58.978Z,4692
2016-05-31T06:32:59.026Z,3460
2016-05-31T06:33:59.202Z,3472
2016-05-31T06:34:59.251Z,3436
2016-05-31T06:35:59.317Z,3396
2016-05-31T06:36:59.366Z,3344
2016-05-31T06:37:59.307Z,3292
2016-05-31T06:38:59.403Z,3240
2016-05-31T06:39:59.295Z,3192
2016-05-31T06:40:59.470Z,3196
2016-05-31T06:41:59.536Z,3328
2016-05-31T06:42:59.414Z,3236
2016-05-31T06:43:59.603Z,3236
2016-05-31T06:44:59.481Z,3320
2016-05-31T06:45:59.686Z,3448
2016-05-31T06:46:59.722Z,3648
2016-05-31T06:47:59.755Z,3660
2016-05-31T06:48:59.820Z,3420
2016-05-31T06:49:59.839Z,3448
2016-05-31T06:50:59.888Z,3464
2016-05-31T06:51:59.750Z,6012
2016-05-31T06:53:00.268Z,6336
2016-05-31T06:53:59.990Z,4944
2016-05-31T06:54:59.868Z,3624
2016-05-31T06:56:00.058Z,3644
2016-05-31T06:56:59.951Z,3644
2016-05-31T06:58:00.141Z,3712
2016-05-31T06:59:00.176Z,3748
2016-05-31T07:00:00.069Z,4544
2016-05-31T07:01:00.259Z,4520
2016-05-31T07:02:00.137Z,4076
2016-05-31T07:03:00.170Z,3696
2016-05-31T07:04:00.360Z,3708
2016-05-31T07:05:00.410Z,3712
2016-05-31T07:06:00.444Z,3744
2016-05-31T07:07:00.478Z,3816
2016-05-31T07:08:01.481Z,3988
2016-05-31T07:09:01.015Z,3924
2016-05-31T07:10:00.595Z,4072
2016-05-31T07:11:00.645Z,4264
2016-05-31T07:12:00.663Z,4028
2016-05-31T07:13:00.729Z,4020
2016-05-31T07:14:00.606Z,4120
2016-05-31T07:15:00.797Z,4284
2016-05-31T07:16:00.689Z,4420
2016-05-31T07:17:00.895Z,4712
2016-05-31T07:18:00.897Z,5212
2016-05-31T07:19:00.933Z,5488
2016-05-31T07:20:00.966Z,5484
2016-05-31T07:21:01.016Z,5468
2016-05-31T07:22:01.065Z,5076
2016-05-31T07:23:01.756Z,5092
2016-05-31T07:24:01.133Z,5148
2016-05-31T07:25:01.182Z,5204
2016-05-31T07:26:01.201Z,5832
2016-05-31T07:27:01.251Z,6316
2016-05-31T07:28:01.300Z,7500
2016-05-31T07:29:01.318Z,13012
2016-05-31T07:30:01.352Z,14160
2016-05-31T07:31:01.402Z,13408
2016-05-31T07:32:01.436Z,16084
2016-05-31T07:33:01.470Z,16928
2016-05-31T07:34:01.520Z,15048
2016-05-31T07:35:01.553Z,14744
2016-05-31T07:36:01.618Z,13800
2016-05-31T07:37:01.653Z,12348
2016-05-31T07:38:01.702Z,10484
2016-05-31T07:39:01.720Z,11036
2016-05-31T07:40:01.739Z,14248
2016-05-31T07:41:01.789Z,16352
2016-05-31T07:42:01.666Z,19168
2016-05-31T07:43:01.715Z,21088
2016-05-31T07:44:01.921Z,29120
2016-05-31T07:45:01.940Z,24640
2016-05-31T07:46:02.006Z,13560
2016-05-31T07:47:02.023Z,8508
2016-05-31T07:48:02.057Z,7900
2016-05-31T07:49:01.794Z,7836
2016-05-31T07:50:02.141Z,10612
2016-05-31T07:51:02.206Z,14676
2016-05-31T07:52:02.224Z,15172
2016-05-31T07:53:03.180Z,21472
2016-05-31T07:54:02.010Z,16064
2016-05-31T07:55:02.342Z,62752
2016-05-31T07:56:02.375Z,14516
2016-05-31T07:57:02.285Z,11620
2016-05-31T07:58:02.490Z,10776
2016-05-31T07:59:02.508Z,8872
2016-05-31T08:00:02.386Z,8260
2016-05-31T08:01:02.421Z,42304
2016-05-31T08:02:02.626Z,13052
2016-05-31T08:03:02.675Z,75392
2016-05-31T08:04:02.710Z,42848
2016-05-31T08:05:02.760Z,13408
2016-05-31T08:06:02.793Z,13104
2016-05-31T08:07:02.686Z,12220
2016-05-31T08:08:02.532Z,10652
2016-05-31T08:09:03.441Z,10456
2016-05-31T08:10:02.960Z,10104
2016-05-31T08:11:02.995Z,10844
2016-05-31T08:12:03.059Z,11192
2016-05-31T08:13:03.092Z,10576
2016-05-31T08:14:03.128Z,10868
2016-05-31T08:15:03.161Z,11412
2016-05-31T08:16:03.211Z,13112
2016-05-31T08:17:03.103Z,17376
2016-05-31T08:18:03.294Z,17760
2016-05-31T08:19:03.327Z,14688
2016-05-31T08:20:03.361Z,14164
2016-05-31T08:21:03.427Z,15352
2016-05-31T08:22:03.305Z,35232
2016-05-31T08:23:03.729Z,30080
2016-05-31T08:24:03.325Z,69376
2016-05-31T08:25:03.578Z,85024
2016-05-31T08:26:03.613Z,98848
2016-05-31T08:27:03.662Z,102912
2016-05-31T08:28:03.711Z,92704
2016-05-31T08:29:03.760Z,76608
2016-05-31T08:30:03.811Z,60896
2016-05-31T08:31:03.829Z,57312
2016-05-31T08:32:03.879Z,14884
2016-05-31T08:33:03.943Z,12440
2016-05-31T08:34:03.977Z,9220
2016-05-31T08:35:04.027Z,8216
2016-05-31T08:36:04.061Z,8076
2016-05-31T08:37:04.111Z,8392
2016-05-31T08:38:04.488Z,9588
2016-05-31T08:39:04.226Z,10076
2016-05-31T08:40:04.243Z,10340
2016-05-31T08:41:04.293Z,12324
2016-05-31T08:42:04.171Z,13652
2016-05-31T08:43:04.220Z,57152
2016-05-31T08:44:04.254Z,19552
2016-05-31T08:45:04.476Z,14460
2016-05-31T08:46:04.509Z,9808
2016-05-31T08:47:04.403Z,8752
2016-05-31T08:48:04.594Z,7704
2016-05-31T08:49:04.472Z,7132
2016-05-31T08:50:04.677Z,6600
2016-05-31T08:51:04.727Z,6376
2016-05-31T08:52:04.807Z,6044
2016-05-31T08:53:04.841Z,5696
2016-05-31T08:54:05.781Z,5336
2016-05-31T08:55:04.909Z,5020
2016-05-31T08:56:04.943Z,5128
2016-05-31T08:57:04.993Z,5388
2016-05-31T08:58:05.027Z,6216
2016-05-31T08:59:04.810Z,7924
2016-05-31T09:00:05.110Z,9816
2016-05-31T09:01:05.175Z,9972
2016-05-31T09:02:05.209Z,8820
2016-05-31T09:03:05.243Z,8556
2016-05-31T09:04:05.137Z,8552
2016-05-31T09:05:05.185Z,7476
2016-05-31T09:06:05.392Z,6056
2016-05-31T09:07:05.410Z,5436
2016-05-31T09:08:06.444Z,5328
2016-05-31T09:09:05.493Z,5016
2016-05-31T09:10:05.543Z,5416
2016-05-31T09:11:05.576Z,5668
2016-05-31T09:12:05.626Z,5512
2016-05-31T09:13:05.676Z,5868
2016-05-31T09:14:05.710Z,6432
2016-05-31T09:15:05.587Z,7360
2016-05-31T09:16:05.794Z,8708
2016-05-31T09:17:05.671Z,9952
2016-05-31T09:18:05.878Z,10408
2016-05-31T09:19:05.911Z,10336
2016-05-31T09:20:05.961Z,11452
2016-05-31T09:21:05.994Z,12948
2016-05-31T09:22:06.045Z,14504
2016-05-31T09:23:06.296Z,17728
2016-05-31T09:24:06.112Z,21632
2016-05-31T09:25:06.208Z,22784
2016-05-31T09:26:06.055Z,21152
2016-05-31T09:27:06.244Z,19776
2016-05-31T09:28:06.295Z,19552
2016-05-31T09:29:06.329Z,17792
2016-05-31T09:30:06.378Z,17600
2016-05-31T09:31:06.255Z,17312
2016-05-31T09:32:06.150Z,16256
2016-05-31T09:33:06.339Z,16384
2016-05-31T09:34:06.546Z,17824
2016-05-31T09:35:06.423Z,20000
2016-05-31T09:36:06.628Z,19808
2016-05-31T09:37:06.522Z,18208
2016-05-31T09:38:06.713Z,17248
2016-05-31T09:39:06.590Z,16512
2016-05-31T09:40:06.796Z,18368
2016-05-31T09:41:06.829Z,19520
2016-05-31T09:42:06.879Z,23200
2016-05-31T09:43:06.912Z,24992
2016-05-31T09:44:06.962Z,29312
2016-05-31T09:45:07.012Z,41856
2016-05-31T09:46:07.062Z,73120
2016-05-31T09:47:07.095Z,81280
2016-05-31T09:48:07.130Z,113760
2016-05-31T09:49:07.179Z,100576
2016-05-31T09:50:07.229Z,69376
2016-05-31T09:51:07.263Z,92256
2016-05-31T09:52:07.328Z,22560
2016-05-31T09:53:07.643Z,23424
2016-05-31T09:54:07.396Z,27616
2016-05-31T09:55:07.445Z,19360
2016-05-31T09:56:07.339Z,19072
2016-05-31T09:57:07.529Z,13760
2016-05-31T09:58:07.578Z,23200
2016-05-31T09:59:07.627Z,20736
2016-05-31T10:00:07.678Z,23424
2016-05-31T10:01:07.571Z,21888
2016-05-31T10:02:07.605Z,24416
2016-05-31T10:03:07.795Z,18144
2016-05-31T10:04:07.704Z,19392
2016-05-31T10:05:07.893Z,32672
2016-05-31T10:06:07.788Z,22496
2016-05-31T10:07:08.009Z,19104
2016-05-31T10:08:08.043Z,17184
2016-05-31T10:09:08.092Z,14920
2016-05-31T10:10:07.971Z,13856
2016-05-31T10:11:08.176Z,14948
2016-05-31T10:12:08.226Z,16064
2016-05-31T10:13:08.259Z,14712
2016-05-31T10:14:08.153Z,13236
2016-05-31T10:15:08.358Z,14084
2016-05-31T10:16:08.409Z,22144
2016-05-31T10:17:08.442Z,19712
2016-05-31T10:18:08.492Z,15724
2016-05-31T10:19:08.384Z,25312
2016-05-31T10:20:08.420Z,29920
2016-05-31T10:21:08.484Z,29056
2016-05-31T10:22:08.658Z,30304
2016-05-31T10:23:08.568Z,37376
2016-05-31T10:24:08.758Z,100608
2016-05-31T10:25:08.807Z,42880
2016-05-31T10:26:08.685Z,37632
2016-05-31T10:27:08.875Z,23168
2016-05-31T10:28:08.941Z,19520
2016-05-31T10:29:08.990Z,18272
2016-05-31T10:30:09.024Z,16256
2016-05-31T10:31:09.074Z,14936
2016-05-31T10:32:08.982Z,14460
2016-05-31T10:33:09.157Z,14544
2016-05-31T10:34:09.222Z,15936
2016-05-31T10:35:09.256Z,18144
2016-05-31T10:36:09.149Z,23328
2016-05-31T10:37:09.199Z,31904
2016-05-31T10:38:09.733Z,39904
2016-05-31T10:39:09.423Z,36160
2016-05-31T10:40:09.316Z,29856
2016-05-31T10:41:09.538Z,25184
2016-05-31T10:42:09.556Z,26432
2016-05-31T10:43:09.465Z,25280
2016-05-31T10:44:09.671Z,26304
2016-05-31T10:45:09.689Z,30240
2016-05-31T10:46:09.770Z,28736
2016-05-31T10:47:09.789Z,27584
2016-05-31T10:48:09.837Z,30816
2016-05-31T10:49:09.888Z,40992
2016-05-31T10:50:09.922Z,51840
2016-05-31T10:51:09.971Z,33184
2016-05-31T10:52:10.005Z,35488
2016-05-31T10:53:10.538Z,34880
2016-05-31T10:54:10.104Z,45312
2016-05-31T10:55:10.153Z,25920
2016-05-31T10:56:10.203Z,22496
2016-05-31T10:57:10.253Z,19264
2016-05-31T10:58:10.302Z,23200
2016-05-31T10:59:10.336Z,17120
2016-05-31T11:00:10.386Z,15344
2016-05-31T11:01:10.263Z,14516
2016-05-31T11:02:10.469Z,14036
2016-05-31T11:03:10.363Z,13880
2016-05-31T11:04:10.568Z,12988
2016-05-31T11:05:10.633Z,12920
2016-05-31T11:06:10.683Z,13424
2016-05-31T11:07:10.560Z,14400
2016-05-31T11:08:10.517Z,15528
2016-05-31T11:09:10.801Z,17120
2016-05-31T11:10:10.678Z,19552
2016-05-31T11:11:10.868Z,21440
2016-05-31T11:12:10.777Z,24544
2016-05-31T11:13:10.983Z,26944
2016-05-31T11:14:11.002Z,25152
2016-05-31T11:15:11.067Z,23808
2016-05-31T11:16:10.945Z,21600
2016-05-31T11:17:11.010Z,18336
2016-05-31T11:18:11.059Z,17408
2016-05-31T11:19:11.234Z,17792
2016-05-31T11:20:11.283Z,19648
2016-05-31T11:21:11.333Z,19552
2016-05-31T11:22:11.226Z,20160
2016-05-31T11:23:11.323Z,22528
2016-05-31T11:24:12.450Z,28064
2016-05-31T11:25:11.531Z,46688
2016-05-31T11:26:11.409Z,26272
2016-05-31T11:27:11.614Z,32640
2016-05-31T11:28:11.664Z,38624
2016-05-31T11:29:11.683Z,34848
2016-05-31T11:30:11.732Z,40896
2016-05-31T11:31:11.625Z,35040
2016-05-31T11:32:12.799Z,25216
2016-05-31T11:33:11.866Z,22080
2016-05-31T11:34:11.915Z,35776
2016-05-31T11:35:11.949Z,107808
2016-05-31T11:36:11.841Z,35840
2016-05-31T11:37:12.063Z,83584
2016-05-31T11:38:12.690Z,96640
2016-05-31T11:39:12.146Z,75232
2016-05-31T11:40:12.182Z,81408
2016-05-31T11:41:12.246Z,98272
2016-05-31T11:42:12.139Z,105120
2016-05-31T11:43:12.330Z,14972
2016-05-31T11:44:12.379Z,31072
2016-05-31T11:45:12.273Z,17920
2016-05-31T11:46:12.479Z,27616
2016-05-31T11:47:12.543Z,12636
2016-05-31T11:48:12.420Z,9280
2016-05-31T11:49:12.626Z,8080
2016-05-31T11:50:12.661Z,8384
2016-05-31T11:51:12.554Z,9432
2016-05-31T11:52:12.792Z,11836
2016-05-31T11:53:13.059Z,14224
2016-05-31T11:54:12.547Z,15056
2016-05-31T11:55:12.908Z,15336
2016-05-31T11:56:12.802Z,15340
2016-05-31T11:57:13.008Z,17088
2016-05-31T11:58:13.042Z,19392
2016-05-31T11:59:13.107Z,23584
2016-05-31T12:00:13.141Z,32800
2016-05-31T12:01:13.205Z,22048
2016-05-31T12:02:13.240Z,20608
2016-05-31T12:03:13.119Z,22656
2016-05-31T12:04:13.339Z,23200
2016-05-31T12:05:13.374Z,31552
2016-05-31T12:06:13.407Z,29280
2016-05-31T12:07:13.471Z,28864
2016-05-31T12:08:13.210Z,32416
2016-05-31T12:09:13.541Z,100832
2016-05-31T12:10:13.449Z,100288
2016-05-31T12:11:13.640Z,95648
2016-05-31T12:12:13.704Z,103584
2016-05-31T12:13:13.738Z,36480
2016-05-31T12:14:13.788Z,25312
2016-05-31T12:15:13.837Z,22560
2016-05-31T12:16:13.715Z,20640
2016-05-31T12:17:13.921Z,15744
2016-05-31T12:18:13.970Z,16064
2016-05-31T12:19:13.848Z,19264
2016-05-31T12:20:13.914Z,16448
2016-05-31T12:21:13.963Z,15208
2016-05-31T12:22:14.013Z,15380
2016-05-31T12:23:13.922Z,20704
2016-05-31T12:24:14.252Z,81344
2016-05-31T12:25:14.286Z,40640
2016-05-31T12:26:14.351Z,23488
2016-05-31T12:27:14.401Z,46176
2016-05-31T12:28:14.450Z,42464
2016-05-31T12:29:14.344Z,76352
2016-05-31T12:30:14.550Z,27104
2016-05-31T12:31:14.599Z,24128
2016-05-31T12:32:14.477Z,47840
2016-05-31T12:33:14.526Z,27904
2016-05-31T12:34:14.747Z,27040
2016-05-31T12:35:14.782Z,19360
2016-05-31T12:36:14.675Z,15592
2016-05-31T12:37:14.866Z,14208
2016-05-31T12:38:15.852Z,13396
2016-05-31T12:39:14.808Z,12700
2016-05-31T12:40:15.029Z,13856
2016-05-31T12:41:15.063Z,15188
2016-05-31T12:42:15.129Z,16416
2016-05-31T12:43:15.163Z,18304
2016-05-31T12:44:15.212Z,23296
2016-05-31T12:45:15.262Z,28704
2016-05-31T12:46:15.311Z,34976
2016-05-31T12:47:15.345Z,38880
2016-05-31T12:48:15.396Z,25760
2016-05-31T12:49:15.445Z,22272
2016-05-31T12:50:15.526Z,26496
2016-05-31T12:51:15.543Z,16640
2016-05-31T12:52:15.578Z,16192
2016-05-31T12:53:15.970Z,14360
2016-05-31T12:54:15.676Z,13380
2016-05-31T12:55:15.554Z,12952
2016-05-31T12:56:15.761Z,13216
2016-05-31T12:57:15.809Z,13796
2016-05-31T12:58:15.859Z,15520
2016-05-31T12:59:15.753Z,21344
2016-05-31T13:00:15.958Z,17056
2016-05-31T13:01:15.992Z,44544
2016-05-31T13:02:15.870Z,17824
2016-05-31T13:03:16.092Z,77312
2016-05-31T13:04:16.141Z,34624
2016-05-31T13:05:16.019Z,114912
2016-05-31T13:06:16.208Z,62240
2016-05-31T13:07:16.119Z,34528
2016-05-31T13:08:16.308Z,18432
2016-05-31T13:09:16.358Z,83840
2016-05-31T13:10:16.251Z,92480
2016-05-31T13:11:16.457Z,100448
2016-05-31T13:12:16.490Z,93792
2016-05-31T13:13:16.556Z,80000
2016-05-31T13:14:16.605Z,77952
2016-05-31T13:15:16.343Z,75040
2016-05-31T13:16:16.704Z,79904
2016-05-31T13:17:16.754Z,96320
2016-05-31T13:18:16.788Z,103616
2016-05-31T13:19:16.837Z,103520
2016-05-31T13:20:16.887Z,94560
2016-05-31T13:21:16.937Z,84640
2016-05-31T13:22:16.987Z,90784
2016-05-31T13:23:17.911Z,98624
2016-05-31T13:24:16.945Z,99008
2016-05-31T13:25:17.134Z,98496
2016-05-31T13:26:17.201Z,97024